sensor_id;sensor_type;location;lat;lon;timestamp;temperature;humidity
9482;DHT22;4779;48.062;11.672;2023-04-25T00:01:46;7.80;99.90
9482;DHT22;4779;48.062;11.672;2023-04-25T00:04:14;7.80;99.90
9482;DHT22;4779;48.062;11.672;2023-04-25T00:06:41;7.90;99.90
9482;DHT22;4779;48.062;11.672;2023-04-25T00:09:08;7.80;99.90
9482;DHT22;4779;48.062;11.672;2023-04-25T00:11:36;7.80;99.90
9482;DHT22;4779;48.062;11.672;2023-04-25T00:14:04;7.80;99.90
9482;DHT22;4779;48.062;11.672;2023-04-25T00:16:32;7.70;99.90
9482;DHT22;4779;48.062;11.672;2023-04-25T00:19:00;7.80;99.90
9482;DHT22;4779;48.062;11.672;2023-04-25T00:21:29;7.80;99.90
9482;DHT22;4779;48.062;11.672;2023-04-25T00:23:57;7.90;99.90
9482;DHT22;4779;48.062;11.672;2023-04-25T00:26:23;7.90;99.90
9482;DHT22;4779;48.062;11.672;2023-04-25T00:28:50;7.90;99.90
9482;DHT22;4779;48.062;11.672;2023-04-25T00:31:17;7.90;99.90
9482;DHT22;4779;48.062;11.672;2023-04-25T00:33:44;7.90;99.90
9482;DHT22;4779;48.062;11.672;2023-04-25T00:36:11;7.90;99.90
9482;DHT22;4779;48.062;11.672;2023-04-25T00:38:39;7.90;99.90
9482;DHT22;4779;48.062;11.672;2023-04-25T00:41:07;7.90;99.90
9482;DHT22;4779;48.062;11.672;2023-04-25T00:43:36;7.90;99.90
9482;DHT22;4779;48.062;11.672;2023-04-25T00:46:03;8.00;99.90
9482;DHT22;4779;48.062;11.672;2023-04-25T00:48:30;8.00;99.90
9482;DHT22;4779;48.062;11.672;2023-04-25T00:50:58;7.90;99.90
9482;DHT22;4779;48.062;11.672;2023-04-25T00:53:27;8.00;99.90
9482;DHT22;4779;48.062;11.672;2023-04-25T00:55:56;8.10;99.90
9482;DHT22;4779;48.062;11.672;2023-04-25T00:58:23;8.10;99.90
9482;DHT22;4779;48.062;11.672;2023-04-25T01:00:51;8.20;99.90
9482;DHT22;4779;48.062;11.672;2023-04-25T01:03:18;8.10;99.90
9482;DHT22;4779;48.062;11.672;2023-04-25T01:05:46;8.10;99.90
9482;DHT22;4779;48.062;11.672;2023-04-25T01:08:13;8.00;99.90
9482;DHT22;4779;48.062;11.672;2023-04-25T01:10:41;7.90;99.90
9482;DHT22;4779;48.062;11.672;2023-04-25T01:13:09;7.90;99.90
9482;DHT22;4779;48.062;11.672;2023-04-25T01:15:36;7.80;99.90
9482;DHT22;4779;48.062;11.672;2023-04-25T01:18:03;7.90;99.90
9482;DHT22;4779;48.062;11.672;2023-04-25T01:20:32;7.90;99.90
9482;DHT22;4779;48.062;11.672;2023-04-25T01:23:01;8.00;99.90
9482;DHT22;4779;48.062;11.672;2023-04-25T01:25:29;8.00;99.90
9482;DHT22;4779;48.062;11.672;2023-04-25T01:27:57;8.00;99.90
9482;DHT22;4779;48.062;11.672;2023-04-25T02:15:13;7.70;99.90
9482;DHT22;4779;48.062;11.672;2023-04-25T02:17:40;7.70;99.90
9482;DHT22;4779;48.062;11.672;2023-04-25T02:20:08;7.60;99.90
9482;DHT22;4779;48.062;11.672;2023-04-25T02:22:35;7.50;99.90
9482;DHT22;4779;48.062;11.672;2023-04-25T02:25:02;7.40;99.90
9482;DHT22;4779;48.062;11.672;2023-04-25T02:27:30;7.50;99.90
9482;DHT22;4779;48.062;11.672;2023-04-25T02:29:57;7.50;99.90
9482;DHT22;4779;48.062;11.672;2023-04-25T02:32:26;7.30;99.90
9482;DHT22;4779;48.062;11.672;2023-04-25T02:34:53;7.30;99.90
9482;DHT22;4779;48.062;11.672;2023-04-25T02:37:20;7.40;99.90
9482;DHT22;4779;48.062;11.672;2023-04-25T02:39:46;7.40;99.90
9482;DHT22;4779;48.062;11.672;2023-04-25T02:42:13;7.30;99.90
9482;DHT22;4779;48.062;11.672;2023-04-25T02:44:40;7.40;99.90
9482;DHT22;4779;48.062;11.672;2023-04-25T02:47:07;7.40;99.90
9482;DHT22;4779;48.062;11.672;2023-04-25T02:49:35;7.50;99.90
9482;DHT22;4779;48.062;11.672;2023-04-25T02:52:02;7.50;99.90
9482;DHT22;4779;48.062;11.672;2023-04-25T02:54:30;7.30;99.90
9482;DHT22;4779;48.062;11.672;2023-04-25T02:56:56;7.30;99.90
9482;DHT22;4779;48.062;11.672;2023-04-25T02:59:23;7.20;99.90
9482;DHT22;4779;48.062;11.672;2023-04-25T03:01:50;7.20;99.90
9482;DHT22;4779;48.062;11.672;2023-04-25T03:04:17;7.30;99.90
9482;DHT22;4779;48.062;11.672;2023-04-25T03:06:47;7.30;99.90
9482;DHT22;4779;48.062;11.672;2023-04-25T03:09:14;7.40;99.90
9482;DHT22;4779;48.062;11.672;2023-04-25T03:11:41;7.50;99.90
9482;DHT22;4779;48.062;11.672;2023-04-25T03:14:08;7.50;99.90
9482;DHT22;4779;48.062;11.672;2023-04-25T03:16:35;7.50;99.90
9482;DHT22;4779;48.062;11.672;2023-04-25T03:19:02;7.40;99.90
9482;DHT22;4779;48.062;11.672;2023-04-25T03:21:30;7.30;99.90
9482;DHT22;4779;48.062;11.672;2023-04-25T03:24:00;7.30;99.90
9482;DHT22;4779;48.062;11.672;2023-04-25T03:26:27;7.30;99.90
9482;DHT22;4779;48.062;11.672;2023-04-25T03:28:53;7.30;99.90
9482;DHT22;4779;48.062;11.672;2023-04-25T03:31:21;7.30;99.90
9482;DHT22;4779;48.062;11.672;2023-04-25T03:33:48;7.20;99.90
9482;DHT22;4779;48.062;11.672;2023-04-25T03:36:15;7.10;99.90
9482;DHT22;4779;48.062;11.672;2023-04-25T03:38:42;6.80;99.90
9482;DHT22;4779;48.062;11.672;2023-04-25T03:41:10;6.70;99.90
9482;DHT22;4779;48.062;11.672;2023-04-25T03:43:37;6.70;99.90
9482;DHT22;4779;48.062;11.672;2023-04-25T03:46:04;6.70;99.90
9482;DHT22;4779;48.062;11.672;2023-04-25T03:48:31;6.70;99.90
9482;DHT22;4779;48.062;11.672;2023-04-25T03:50:58;6.60;99.90
9482;DHT22;4779;48.062;11.672;2023-04-25T03:53:25;6.50;99.90
9482;DHT22;4779;48.062;11.672;2023-04-25T03:55:52;6.40;99.90
9482;DHT22;4779;48.062;11.672;2023-04-25T03:58:20;6.40;99.90
9482;DHT22;4779;48.062;11.672;2023-04-25T04:00:48;6.40;99.90
9482;DHT22;4779;48.062;11.672;2023-04-25T04:03:15;6.40;99.90
9482;DHT22;4779;48.062;11.672;2023-04-25T04:05:42;6.40;99.90
9482;DHT22;4779;48.062;11.672;2023-04-25T04:08:09;6.50;99.90
9482;DHT22;4779;48.062;11.672;2023-04-25T04:10:36;6.50;99.90
9482;DHT22;4779;48.062;11.672;2023-04-25T04:13:03;6.40;99.90
9482;DHT22;4779;48.062;11.672;2023-04-25T04:15:31;6.40;99.90
9482;DHT22;4779;48.062;11.672;2023-04-25T04:17:58;6.40;99.90
9482;DHT22;4779;48.062;11.672;2023-04-25T04:20:28;6.40;99.90
9482;DHT22;4779;48.062;11.672;2023-04-25T04:22:55;6.40;99.90
9482;DHT22;4779;48.062;11.672;2023-04-25T04:25:22;6.40;99.90
9482;DHT22;4779;48.062;11.672;2023-04-25T04:27:50;6.50;99.90
9482;DHT22;4779;48.062;11.672;2023-04-25T04:30:20;6.50;99.90
9482;DHT22;4779;48.062;11.672;2023-04-25T04:32:50;6.50;99.90
9482;DHT22;4779;48.062;11.672;2023-04-25T04:35:17;6.60;99.90
9482;DHT22;4779;48.062;11.672;2023-04-25T04:37:44;6.60;99.90
9482;DHT22;4779;48.062;11.672;2023-04-25T04:40:12;6.60;99.90
9482;DHT22;4779;48.062;11.672;2023-04-25T04:42:41;6.70;99.90
9482;DHT22;4779;48.062;11.672;2023-04-25T04:45:08;6.70;99.90
9482;DHT22;4779;48.062;11.672;2023-04-25T04:47:36;6.70;99.90
9482;DHT22;4779;48.062;11.672;2023-04-25T04:50:07;6.70;99.90
9482;DHT22;4779;48.062;11.672;2023-04-25T04:52:34;6.70;99.90
9482;DHT22;4779;48.062;11.672;2023-04-25T04:55:02;6.60;99.90
9482;DHT22;4779;48.062;11.672;2023-04-25T04:57:29;6.50;99.90
9482;DHT22;4779;48.062;11.672;2023-04-25T04:59:56;6.50;99.90
9482;DHT22;4779;48.062;11.672;2023-04-25T05:02:23;6.50;99.90
9482;DHT22;4779;48.062;11.672;2023-04-25T05:04:50;6.60;99.90
9482;DHT22;4779;48.062;11.672;2023-04-25T05:07:19;6.60;99.90
9482;DHT22;4779;48.062;11.672;2023-04-25T05:09:46;6.60;99.90
9482;DHT22;4779;48.062;11.672;2023-04-25T05:12:13;6.70;99.90
9482;DHT22;4779;48.062;11.672;2023-04-25T05:14:40;6.70;99.90
9482;DHT22;4779;48.062;11.672;2023-04-25T05:17:07;6.80;99.90
9482;DHT22;4779;48.062;11.672;2023-04-25T05:19:34;6.80;99.90
9482;DHT22;4779;48.062;11.672;2023-04-25T05:22:01;6.90;99.90
9482;DHT22;4779;48.062;11.672;2023-04-25T05:24:29;6.90;99.90
9482;DHT22;4779;48.062;11.672;2023-04-25T05:26:57;7.00;99.90
9482;DHT22;4779;48.062;11.672;2023-04-25T05:29:24;7.20;99.90
9482;DHT22;4779;48.062;11.672;2023-04-25T05:31:51;7.10;99.90
9482;DHT22;4779;48.062;11.672;2023-04-25T05:34:18;7.20;99.90
9482;DHT22;4779;48.062;11.672;2023-04-25T05:36:45;7.30;99.90
9482;DHT22;4779;48.062;11.672;2023-04-25T05:39:14;7.30;99.90
9482;DHT22;4779;48.062;11.672;2023-04-25T05:41:42;7.30;99.90
9482;DHT22;4779;48.062;11.672;2023-04-25T05:44:09;7.30;99.90
9482;DHT22;4779;48.062;11.672;2023-04-25T05:46:36;7.30;99.90
9482;DHT22;4779;48.062;11.672;2023-04-25T05:49:03;7.40;99.90
9482;DHT22;4779;48.062;11.672;2023-04-25T05:51:30;7.40;99.90
9482;DHT22;4779;48.062;11.672;2023-04-25T05:53:57;7.40;99.90
9482;DHT22;4779;48.062;11.672;2023-04-25T05:56:24;7.40;99.90
9482;DHT22;4779;48.062;11.672;2023-04-25T05:58:52;7.50;99.90
9482;DHT22;4779;48.062;11.672;2023-04-25T06:01:19;7.50;99.90
9482;DHT22;4779;48.062;11.672;2023-04-25T06:03:46;7.70;99.90
9482;DHT22;4779;48.062;11.672;2023-04-25T06:06:13;7.70;99.90
9482;DHT22;4779;48.062;11.672;2023-04-25T06:08:40;7.80;99.90
9482;DHT22;4779;48.062;11.672;2023-04-25T06:11:06;7.80;99.90
9482;DHT22;4779;48.062;11.672;2023-04-25T06:13:33;8.00;99.90
9482;DHT22;4779;48.062;11.672;2023-04-25T06:16:02;8.10;99.90
9482;DHT22;4779;48.062;11.672;2023-04-25T06:18:29;8.20;99.90
9482;DHT22;4779;48.062;11.672;2023-04-25T06:20:56;8.50;99.90
9482;DHT22;4779;48.062;11.672;2023-04-25T06:23:23;8.50;99.90
9482;DHT22;4779;48.062;11.672;2023-04-25T06:25:50;8.20;99.90
9482;DHT22;4779;48.062;11.672;2023-04-25T06:28:17;8.00;99.90
9482;DHT22;4779;48.062;11.672;2023-04-25T06:30:44;7.70;99.90
9482;DHT22;4779;48.062;11.672;2023-04-25T06:33:12;7.70;99.90
9482;DHT22;4779;48.062;11.672;2023-04-25T06:35:39;7.70;99.90
9482;DHT22;4779;48.062;11.672;2023-04-25T06:38:06;7.60;99.90
9482;DHT22;4779;48.062;11.672;2023-04-25T06:40:33;7.70;99.90
9482;DHT22;4779;48.062;11.672;2023-04-25T06:43:00;7.80;99.90
9482;DHT22;4779;48.062;11.672;2023-04-25T06:45:26;7.80;99.90
9482;DHT22;4779;48.062;11.672;2023-04-25T06:47:53;8.00;99.90
9482;DHT22;4779;48.062;11.672;2023-04-25T06:50:22;8.10;99.90
9482;DHT22;4779;48.062;11.672;2023-04-25T06:52:48;8.20;99.90
9482;DHT22;4779;48.062;11.672;2023-04-25T06:55:15;8.50;99.90
9482;DHT22;4779;48.062;11.672;2023-04-25T06:57:42;8.50;99.90
9482;DHT22;4779;48.062;11.672;2023-04-25T07:00:10;8.60;99.90
9482;DHT22;4779;48.062;11.672;2023-04-25T07:02:37;8.60;99.90
9482;DHT22;4779;48.062;11.672;2023-04-25T07:05:04;8.60;99.90
9482;DHT22;4779;48.062;11.672;2023-04-25T07:07:33;8.60;99.90
9482;DHT22;4779;48.062;11.672;2023-04-25T07:10:00;8.60;99.90
9482;DHT22;4779;48.062;11.672;2023-04-25T07:12:27;8.50;99.90
9482;DHT22;4779;48.062;11.672;2023-04-25T07:14:53;8.40;99.90
9482;DHT22;4779;48.062;11.672;2023-04-25T07:17:20;8.40;99.90
9482;DHT22;4779;48.062;11.672;2023-04-25T07:19:47;8.20;99.90
9482;DHT22;4779;48.062;11.672;2023-04-25T07:22:14;8.10;99.90
9482;DHT22;4779;48.062;11.672;2023-04-25T07:24:42;8.20;99.90
9482;DHT22;4779;48.062;11.672;2023-04-25T07:27:12;8.20;99.90
9482;DHT22;4779;48.062;11.672;2023-04-25T07:29:39;8.30;99.90
9482;DHT22;4779;48.062;11.672;2023-04-25T07:32:07;8.40;99.90
9482;DHT22;4779;48.062;11.672;2023-04-25T07:34:35;8.40;99.90
9482;DHT22;4779;48.062;11.672;2023-04-25T07:37:04;8.40;99.90
9482;DHT22;4779;48.062;11.672;2023-04-25T07:39:31;8.50;99.90
9482;DHT22;4779;48.062;11.672;2023-04-25T07:41:59;8.70;99.90
9482;DHT22;4779;48.062;11.672;2023-04-25T07:44:27;8.80;99.90
9482;DHT22;4779;48.062;11.672;2023-04-25T07:46:55;8.90;99.90
9482;DHT22;4779;48.062;11.672;2023-04-25T07:49:23;8.90;99.90
9482;DHT22;4779;48.062;11.672;2023-04-25T07:51:49;8.80;99.90
9482;DHT22;4779;48.062;11.672;2023-04-25T07:54:17;8.90;99.90
9482;DHT22;4779;48.062;11.672;2023-04-25T07:56:44;9.10;99.90
9482;DHT22;4779;48.062;11.672;2023-04-25T07:59:12;9.30;99.90
9482;DHT22;4779;48.062;11.672;2023-04-25T08:01:39;9.50;99.90
9482;DHT22;4779;48.062;11.672;2023-04-25T08:04:06;9.70;99.90
9482;DHT22;4779;48.062;11.672;2023-04-25T08:06:33;9.80;99.90
9482;DHT22;4779;48.062;11.672;2023-04-25T08:09:00;9.90;99.90
9482;DHT22;4779;48.062;11.672;2023-04-25T08:11:27;9.80;99.90
9482;DHT22;4779;48.062;11.672;2023-04-25T08:13:54;10.00;99.90
9482;DHT22;4779;48.062;11.672;2023-04-25T08:16:22;10.30;99.90
9482;DHT22;4779;48.062;11.672;2023-04-25T08:18:50;10.60;99.90
9482;DHT22;4779;48.062;11.672;2023-04-25T08:21:17;10.50;99.90
9482;DHT22;4779;48.062;11.672;2023-04-25T08:23:44;10.60;99.90
9482;DHT22;4779;48.062;11.672;2023-04-25T08:26:11;10.80;99.90
9482;DHT22;4779;48.062;11.672;2023-04-25T08:28:37;11.00;99.90
9482;DHT22;4779;48.062;11.672;2023-04-25T08:31:04;11.10;99.90
9482;DHT22;4779;48.062;11.672;2023-04-25T08:33:33;11.20;99.90
9482;DHT22;4779;48.062;11.672;2023-04-25T08:36:00;11.40;99.90
9482;DHT22;4779;48.062;11.672;2023-04-25T08:38:26;11.70;99.90
9482;DHT22;4779;48.062;11.672;2023-04-25T08:40:54;12.00;99.90
9482;DHT22;4779;48.062;11.672;2023-04-25T08:43:23;11.80;99.90
9482;DHT22;4779;48.062;11.672;2023-04-25T08:45:53;11.40;99.90
9482;DHT22;4779;48.062;11.672;2023-04-25T08:48:21;11.30;99.90
9482;DHT22;4779;48.062;11.672;2023-04-25T08:50:53;11.10;99.90
9482;DHT22;4779;48.062;11.672;2023-04-25T08:53:25;11.00;99.90
9482;DHT22;4779;48.062;11.672;2023-04-25T08:55:53;10.80;99.90
9482;DHT22;4779;48.062;11.672;2023-04-25T08:58:21;10.80;99.90
9482;DHT22;4779;48.062;11.672;2023-04-25T09:00:49;11.20;99.90
9482;DHT22;4779;48.062;11.672;2023-04-25T09:03:16;11.50;99.90
9482;DHT22;4779;48.062;11.672;2023-04-25T09:05:44;11.90;99.90
9482;DHT22;4779;48.062;11.672;2023-04-25T09:08:12;12.40;99.90
9482;DHT22;4779;48.062;11.672;2023-04-25T09:10:40;13.10;99.90
9482;DHT22;4779;48.062;11.672;2023-04-25T09:13:08;13.50;99.90
9482;DHT22;4779;48.062;11.672;2023-04-25T09:15:47;13.60;99.80
9482;DHT22;4779;48.062;11.672;2023-04-25T09:18:22;13.00;99.00
9482;DHT22;4779;48.062;11.672;2023-04-25T09:20:51;12.50;99.50
9482;DHT22;4779;48.062;11.672;2023-04-25T09:23:20;12.10;99.90
9482;DHT22;4779;48.062;11.672;2023-04-25T09:25:48;11.60;99.50
9482;DHT22;4779;48.062;11.672;2023-04-25T09:28:15;11.40;99.90
9482;DHT22;4779;48.062;11.672;2023-04-25T09:30:42;11.30;99.90
9482;DHT22;4779;48.062;11.672;2023-04-25T09:33:10;11.70;99.90
9482;DHT22;4779;48.062;11.672;2023-04-25T09:35:39;12.40;99.90
9482;DHT22;4779;48.062;11.672;2023-04-25T09:38:10;13.20;99.80
9482;DHT22;4779;48.062;11.672;2023-04-25T09:40:42;13.90;99.40
9482;DHT22;4779;48.062;11.672;2023-04-25T09:43:10;13.50;97.10
9482;DHT22;4779;48.062;11.672;2023-04-25T09:45:41;13.00;96.90
9482;DHT22;4779;48.062;11.672;2023-04-25T09:48:11;12.60;98.40
9482;DHT22;4779;48.062;11.672;2023-04-25T09:50:39;12.10;97.60
9482;DHT22;4779;48.062;11.672;2023-04-25T09:53:06;11.80;99.30
9482;DHT22;4779;48.062;11.672;2023-04-25T09:55:34;11.90;99.90
9482;DHT22;4779;48.062;11.672;2023-04-25T09:58:04;12.10;99.60
9482;DHT22;4779;48.062;11.672;2023-04-25T10:00:33;12.20;99.90
9482;DHT22;4779;48.062;11.672;2023-04-25T10:03:01;12.60;99.90
9482;DHT22;4779;48.062;11.672;2023-04-25T10:05:31;13.50;99.60
9482;DHT22;4779;48.062;11.672;2023-04-25T10:08:00;13.80;97.30
9482;DHT22;4779;48.062;11.672;2023-04-25T10:10:30;13.60;96.90
9482;DHT22;4779;48.062;11.672;2023-04-25T10:13:04;13.60;95.70
9482;DHT22;4779;48.062;11.672;2023-04-25T10:15:34;13.50;97.20
9482;DHT22;4779;48.062;11.672;2023-04-25T10:18:02;13.50;97.50
9482;DHT22;4779;48.062;11.672;2023-04-25T10:20:29;13.30;96.60
9482;DHT22;4779;48.062;11.672;2023-04-25T10:23:02;12.90;94.70
9482;DHT22;4779;48.062;11.672;2023-04-25T10:25:30;12.50;95.70
9482;DHT22;4779;48.062;11.672;2023-04-25T10:28:00;12.10;96.30
9482;DHT22;4779;48.062;11.672;2023-04-25T10:30:29;12.10;97.50
9482;DHT22;4779;48.062;11.672;2023-04-25T10:32:56;12.20;97.30
9482;DHT22;4779;48.062;11.672;2023-04-25T10:35:25;12.20;96.10
9482;DHT22;4779;48.062;11.672;2023-04-25T10:37:57;12.50;97.30
9482;DHT22;4779;48.062;11.672;2023-04-25T10:40:25;13.50;99.30
9482;DHT22;4779;48.062;11.672;2023-04-25T10:42:52;14.60;97.20
9482;DHT22;4779;48.062;11.672;2023-04-25T10:45:20;15.20;93.80
9482;DHT22;4779;48.062;11.672;2023-04-25T10:47:48;15.50;95.30
9482;DHT22;4779;48.062;11.672;2023-04-25T10:50:15;15.90;94.90
9482;DHT22;4779;48.062;11.672;2023-04-25T10:52:43;15.90;93.30
9482;DHT22;4779;48.062;11.672;2023-04-25T10:55:10;15.60;92.60
9482;DHT22;4779;48.062;11.672;2023-04-25T10:57:39;15.00;93.50
9482;DHT22;4779;48.062;11.672;2023-04-25T11:00:12;14.20;93.90
9482;DHT22;4779;48.062;11.672;2023-04-25T11:02:45;13.10;94.20
9482;DHT22;4779;48.062;11.672;2023-04-25T11:05:20;12.50;94.80
9482;DHT22;4779;48.062;11.672;2023-04-25T11:07:50;12.10;96.20
9482;DHT22;4779;48.062;11.672;2023-04-25T11:10:18;12.00;98.90
9482;DHT22;4779;48.062;11.672;2023-04-25T11:12:48;11.90;98.70
9482;DHT22;4779;48.062;11.672;2023-04-25T11:15:15;11.70;98.80
9482;DHT22;4779;48.062;11.672;2023-04-25T11:17:42;11.30;99.70
9482;DHT22;4779;48.062;11.672;2023-04-25T11:20:12;11.20;99.90
9482;DHT22;4779;48.062;11.672;2023-04-25T11:22:41;11.10;99.90
9482;DHT22;4779;48.062;11.672;2023-04-25T11:25:09;11.00;99.90
9482;DHT22;4779;48.062;11.672;2023-04-25T11:27:49;10.50;99.90
9482;DHT22;4779;48.062;11.672;2023-04-25T11:30:17;10.10;99.90
9482;DHT22;4779;48.062;11.672;2023-04-25T11:32:44;9.60;99.90
9482;DHT22;4779;48.062;11.672;2023-04-25T11:35:11;9.20;99.90
9482;DHT22;4779;48.062;11.672;2023-04-25T11:37:41;9.00;99.90
9482;DHT22;4779;48.062;11.672;2023-04-25T11:40:09;8.90;99.90
9482;DHT22;4779;48.062;11.672;2023-04-25T11:42:37;8.80;99.90
9482;DHT22;4779;48.062;11.672;2023-04-25T11:45:06;8.70;99.90
9482;DHT22;4779;48.062;11.672;2023-04-25T11:47:33;8.60;99.90
9482;DHT22;4779;48.062;11.672;2023-04-25T11:50:01;8.50;99.90
9482;DHT22;4779;48.062;11.672;2023-04-25T11:52:45;8.50;99.90
9482;DHT22;4779;48.062;11.672;2023-04-25T11:55:14;8.40;99.90
9482;DHT22;4779;48.062;11.672;2023-04-25T11:57:41;8.20;99.90
9482;DHT22;4779;48.062;11.672;2023-04-25T12:00:12;8.10;99.90
9482;DHT22;4779;48.062;11.672;2023-04-25T12:02:43;8.20;99.90
9482;DHT22;4779;48.062;11.672;2023-04-25T12:05:11;8.30;99.90
9482;DHT22;4779;48.062;11.672;2023-04-25T12:07:38;8.20;99.90
9482;DHT22;4779;48.062;11.672;2023-04-25T12:10:12;8.30;99.90
9482;DHT22;4779;48.062;11.672;2023-04-25T12:12:42;8.20;99.90
9482;DHT22;4779;48.062;11.672;2023-04-25T12:15:11;8.20;99.90
9482;DHT22;4779;48.062;11.672;2023-04-25T12:17:41;8.30;99.90
9482;DHT22;4779;48.062;11.672;2023-04-25T12:20:10;8.40;99.90
9482;DHT22;4779;48.062;11.672;2023-04-25T12:22:40;8.50;99.90
9482;DHT22;4779;48.062;11.672;2023-04-25T12:25:11;8.40;99.90
9482;DHT22;4779;48.062;11.672;2023-04-25T12:27:39;8.50;99.90
9482;DHT22;4779;48.062;11.672;2023-04-25T12:30:09;8.70;99.90
9482;DHT22;4779;48.062;11.672;2023-04-25T12:32:37;8.70;99.90
9482;DHT22;4779;48.062;11.672;2023-04-25T12:35:05;8.80;99.90
9482;DHT22;4779;48.062;11.672;2023-04-25T12:37:33;8.90;99.90
9482;DHT22;4779;48.062;11.672;2023-04-25T12:40:00;9.00;99.90
9482;DHT22;4779;48.062;11.672;2023-04-25T12:42:28;9.10;99.90
9482;DHT22;4779;48.062;11.672;2023-04-25T12:44:55;9.30;99.90
9482;DHT22;4779;48.062;11.672;2023-04-25T12:47:22;9.50;99.90
9482;DHT22;4779;48.062;11.672;2023-04-25T12:49:49;9.80;99.90
9482;DHT22;4779;48.062;11.672;2023-04-25T12:52:16;10.00;99.90
9482;DHT22;4779;48.062;11.672;2023-04-25T12:54:42;10.00;99.90
9482;DHT22;4779;48.062;11.672;2023-04-25T12:57:09;10.10;99.90
9482;DHT22;4779;48.062;11.672;2023-04-25T12:59:38;10.10;99.90
9482;DHT22;4779;48.062;11.672;2023-04-25T13:02:05;10.10;99.90
9482;DHT22;4779;48.062;11.672;2023-04-25T13:04:32;9.90;99.90
9482;DHT22;4779;48.062;11.672;2023-04-25T13:06:58;9.90;99.90
9482;DHT22;4779;48.062;11.672;2023-04-25T13:09:25;9.90;99.90
9482;DHT22;4779;48.062;11.672;2023-04-25T13:11:52;10.10;99.90
9482;DHT22;4779;48.062;11.672;2023-04-25T13:14:19;10.00;99.90
9482;DHT22;4779;48.062;11.672;2023-04-25T13:16:47;10.10;99.90
9482;DHT22;4779;48.062;11.672;2023-04-25T13:19:14;10.00;99.90
9482;DHT22;4779;48.062;11.672;2023-04-25T13:21:41;9.90;99.90
9482;DHT22;4779;48.062;11.672;2023-04-25T13:24:08;9.80;99.90
9482;DHT22;4779;48.062;11.672;2023-04-25T13:26:35;9.70;99.90
9482;DHT22;4779;48.062;11.672;2023-04-25T13:29:02;9.50;99.90
9482;DHT22;4779;48.062;11.672;2023-04-25T13:31:30;9.70;99.90
9482;DHT22;4779;48.062;11.672;2023-04-25T13:33:59;9.90;99.90
9482;DHT22;4779;48.062;11.672;2023-04-25T13:36:26;9.90;99.90
9482;DHT22;4779;48.062;11.672;2023-04-25T13:38:53;9.80;99.90
9482;DHT22;4779;48.062;11.672;2023-04-25T13:41:20;9.80;99.90
9482;DHT22;4779;48.062;11.672;2023-04-25T13:43:47;9.60;99.90
9482;DHT22;4779;48.062;11.672;2023-04-25T13:46:14;9.60;99.90
9482;DHT22;4779;48.062;11.672;2023-04-25T13:48:42;9.70;99.90
9482;DHT22;4779;48.062;11.672;2023-04-25T13:51:16;9.60;99.90
9482;DHT22;4779;48.062;11.672;2023-04-25T13:53:43;9.60;99.90
9482;DHT22;4779;48.062;11.672;2023-04-25T13:56:11;9.70;99.90
9482;DHT22;4779;48.062;11.672;2023-04-25T13:58:38;9.70;99.90
9482;DHT22;4779;48.062;11.672;2023-04-25T14:01:05;9.70;99.90
9482;DHT22;4779;48.062;11.672;2023-04-25T14:03:32;9.60;99.90
9482;DHT22;4779;48.062;11.672;2023-04-25T14:05:59;9.40;99.90
9482;DHT22;4779;48.062;11.672;2023-04-25T14:08:28;9.10;99.90
9482;DHT22;4779;48.062;11.672;2023-04-25T14:10:55;8.70;99.90
9482;DHT22;4779;48.062;11.672;2023-04-25T14:13:22;8.60;99.90
9482;DHT22;4779;48.062;11.672;2023-04-25T14:15:50;8.50;99.90
9482;DHT22;4779;48.062;11.672;2023-04-25T14:18:17;8.50;99.90
9482;DHT22;4779;48.062;11.672;2023-04-25T14:20:44;8.60;99.90
9482;DHT22;4779;48.062;11.672;2023-04-25T14:23:11;8.60;99.90
9482;DHT22;4779;48.062;11.672;2023-04-25T14:25:40;8.50;99.90
9482;DHT22;4779;48.062;11.672;2023-04-25T14:28:09;8.50;99.90
9482;DHT22;4779;48.062;11.672;2023-04-25T14:30:35;8.60;99.90
9482;DHT22;4779;48.062;11.672;2023-04-25T14:33:02;8.70;99.90
9482;DHT22;4779;48.062;11.672;2023-04-25T14:35:29;8.80;99.90
9482;DHT22;4779;48.062;11.672;2023-04-25T14:37:56;8.60;99.90
9482;DHT22;4779;48.062;11.672;2023-04-25T14:40:23;8.70;99.90
9482;DHT22;4779;48.062;11.672;2023-04-25T14:42:52;8.60;99.90
9482;DHT22;4779;48.062;11.672;2023-04-25T14:45:19;8.70;99.90
9482;DHT22;4779;48.062;11.672;2023-04-25T14:47:45;8.70;99.90
9482;DHT22;4779;48.062;11.672;2023-04-25T14:50:12;8.80;99.90
9482;DHT22;4779;48.062;11.672;2023-04-25T14:52:39;8.90;99.90
9482;DHT22;4779;48.062;11.672;2023-04-25T14:55:07;9.30;99.90
9482;DHT22;4779;48.062;11.672;2023-04-25T14:57:34;9.70;99.90
9482;DHT22;4779;48.062;11.672;2023-04-25T15:00:03;10.10;99.90
9482;DHT22;4779;48.062;11.672;2023-04-25T15:02:34;10.00;99.90
9482;DHT22;4779;48.062;11.672;2023-04-25T15:05:01;10.10;99.90
9482;DHT22;4779;48.062;11.672;2023-04-25T15:07:28;10.30;99.90
9482;DHT22;4779;48.062;11.672;2023-04-25T15:09:56;10.20;99.90
9482;DHT22;4779;48.062;11.672;2023-04-25T15:12:22;10.30;99.90
9482;DHT22;4779;48.062;11.672;2023-04-25T15:14:51;10.30;99.90
9482;DHT22;4779;48.062;11.672;2023-04-25T15:17:19;10.10;99.90
9482;DHT22;4779;48.062;11.672;2023-04-25T15:19:46;9.80;99.90
9482;DHT22;4779;48.062;11.672;2023-04-25T15:22:13;9.70;99.90
9482;DHT22;4779;48.062;11.672;2023-04-25T15:24:40;9.70;99.90
9482;DHT22;4779;48.062;11.672;2023-04-25T15:27:07;9.70;99.90
9482;DHT22;4779;48.062;11.672;2023-04-25T15:29:34;9.50;99.90
9482;DHT22;4779;48.062;11.672;2023-04-25T15:32:01;9.60;99.90
9482;DHT22;4779;48.062;11.672;2023-04-25T15:34:29;9.60;99.90
9482;DHT22;4779;48.062;11.672;2023-04-25T15:36:56;9.60;99.90
9482;DHT22;4779;48.062;11.672;2023-04-25T15:39:23;9.60;99.90
9482;DHT22;4779;48.062;11.672;2023-04-25T15:41:50;9.50;99.90
9482;DHT22;4779;48.062;11.672;2023-04-25T15:44:17;9.60;99.90
9482;DHT22;4779;48.062;11.672;2023-04-25T15:46:44;9.40;99.90
9482;DHT22;4779;48.062;11.672;2023-04-25T15:49:11;9.40;99.90
9482;DHT22;4779;48.062;11.672;2023-04-25T15:51:40;9.30;99.90
9482;DHT22;4779;48.062;11.672;2023-04-25T15:54:07;9.40;99.90
9482;DHT22;4779;48.062;11.672;2023-04-25T15:56:34;9.40;99.90
9482;DHT22;4779;48.062;11.672;2023-04-25T15:59:01;9.20;99.90
9482;DHT22;4779;48.062;11.672;2023-04-25T16:01:28;9.10;99.90
9482;DHT22;4779;48.062;11.672;2023-04-25T16:03:55;9.10;99.90
9482;DHT22;4779;48.062;11.672;2023-04-25T16:06:23;9.10;99.90
9482;DHT22;4779;48.062;11.672;2023-04-25T16:08:52;9.10;99.90
9482;DHT22;4779;48.062;11.672;2023-04-25T16:11:19;9.00;99.90
9482;DHT22;4779;48.062;11.672;2023-04-25T16:13:46;9.00;99.90
9482;DHT22;4779;48.062;11.672;2023-04-25T16:16:13;9.10;99.90
9482;DHT22;4779;48.062;11.672;2023-04-25T16:18:41;9.10;99.90
9482;DHT22;4779;48.062;11.672;2023-04-25T16:21:07;9.10;99.90
9482;DHT22;4779;48.062;11.672;2023-04-25T16:23:36;9.10;99.90
9482;DHT22;4779;48.062;11.672;2023-04-25T16:26:04;9.00;99.90
9482;DHT22;4779;48.062;11.672;2023-04-25T16:28:33;8.90;99.90
9482;DHT22;4779;48.062;11.672;2023-04-25T16:31:00;8.90;99.90
9482;DHT22;4779;48.062;11.672;2023-04-25T16:33:27;9.00;99.90
9482;DHT22;4779;48.062;11.672;2023-04-25T16:35:54;9.00;99.90
9482;DHT22;4779;48.062;11.672;2023-04-25T16:38:21;8.90;99.90
9482;DHT22;4779;48.062;11.672;2023-04-25T16:40:47;9.00;99.90
9482;DHT22;4779;48.062;11.672;2023-04-25T16:43:16;8.80;99.90
9482;DHT22;4779;48.062;11.672;2023-04-25T16:45:45;8.70;99.90